BDL Airport (Bradley Intl) Information

FAA: BDL - ICAO: KBDL

BDL Airport Location

State Connecticut
County Hartford
City Windsor Locks
BDL Airport is 3 miles west of Windsor Locks, CT.
Latitude 41-56-20.9000N
Longitude 072-41-00.1000W
Elevation 173ft

KBDL Airport METARs

METAR KBDL 242351Z 00000KT 10SM BKN075 OVC200 12/06 A3015 RMK AO2 SLP209 T01170061 10156 20111 50008
Altimeter 30.15"
Temperature 11.7°C (53.1°F)
Wind 0° at 0KT
Clouds broken at 7,500ft overcast at 20,000ft
Visibility 10.0mi
Time observed: 2021-10-24T23:51:00Z

BDL Airport Details

Status Operational
Activation July 1942
Ownership Public
Usage Public
Chart NEW YORK
ATC on-site Yes
Beacon schedule sunset-sunrise
Beacon color clear green

BDL Airport Contacts

Owner CONNECTICUT AIRPORT AUTHORITY
Owner address AIRPORT ADMINISTRATION OFFICE, TERMINAL A, 3RD FLOOR, WINDSOR LOCKS, CT 06096-1022
Owner phone 860-594-2530
Manager KEITH J. NASIN
Manager address NORTH WINDHAM ROAD, WILLIMANTIC, CT 06226
Manager phone 203-423-1831

BDL Airport (Bradley Intl) Radio Frequencies

BDL (Airport) Radio Frequencies

UNICOM 122.95
Common traffic advisory frequency (CTAF) N/A